N726AK KORE-KPVD
Flight info
| Callsign | N726AK |
|---|---|
| Flight time | N/A |
| Altitude | 3500 |
| Route | KPVD |
| Aircraft | C272/L-VGD/C |
Departure
| Time | 2026-04-27 21:38 |
|---|---|
| Airport | Orange Municipal Airport (KORE) |
Arrival
| Time | N/A |
|---|---|
| Airport | Rhode Island T. F. Green International Airport (KPVD) |
| Time | Latitude | Longitude | Altitude | Speed | Heading |
|---|---|---|---|---|---|
| 2026-04-27 21:22 | 42.57272 | -72.28430 | 541 ft | 0 kts | 129° |
| 2026-04-27 21:30 | 42.57254 | -72.28426 | 541 ft | 3 kts | 189° |
| 2026-04-27 21:30 | 42.57225 | -72.28401 | 542 ft | 6 kts | 128° |
| 2026-04-27 21:30 | 42.57204 | -72.28362 | 542 ft | 4 kts | 126° |
| 2026-04-27 21:30 | 42.57178 | -72.28316 | 543 ft | 7 kts | 126° |
| 2026-04-27 21:31 | 42.57146 | -72.28274 | 543 ft | 5 kts | 162° |
| 2026-04-27 21:31 | 42.57105 | -72.28265 | 544 ft | 7 kts | 172° |
| 2026-04-27 21:31 | 42.57055 | -72.28255 | 545 ft | 6 kts | 165° |
| 2026-04-27 21:31 | 42.57035 | -72.28232 | 545 ft | 0 kts | 125° |
| 2026-04-27 21:36 | 42.57017 | -72.28217 | 546 ft | 7 kts | 182° |
| 2026-04-27 21:37 | 42.56972 | -72.28256 | 547 ft | 5 kts | 245° |
| 2026-04-27 21:37 | 42.56988 | -72.28297 | 546 ft | 20 kts | 305° |
| 2026-04-27 21:37 | 42.57197 | -72.28671 | 564 ft | 69 kts | 309° |
| 2026-04-27 21:37 | 42.57504 | -72.29248 | 726 ft | 78 kts | 309° |
| 2026-04-27 21:38 | 42.57806 | -72.29863 | 919 ft | 81 kts | 306° |
| 2026-04-27 21:38 | 42.58117 | -72.30518 | 1118 ft | 83 kts | 306° |
| 2026-04-27 21:38 | 42.58418 | -72.31191 | 1318 ft | 85 kts | 301° |
| 2026-04-27 21:38 | 42.58699 | -72.31896 | 1522 ft | 85 kts | 305° |
| 2026-04-27 21:39 | 42.59017 | -72.32583 | 1722 ft | 86 kts | 307° |
| 2026-04-27 21:39 | 42.59322 | -72.33273 | 1917 ft | 87 kts | 304° |
| 2026-04-27 21:39 | 42.59618 | -72.34007 | 2103 ft | 88 kts | 307° |
| 2026-04-27 21:39 | 42.59979 | -72.34654 | 2299 ft | 86 kts | 327° |
| 2026-04-27 21:40 | 42.60516 | -72.34951 | 2464 ft | 82 kts | 4° |
| 2026-04-27 21:40 | 42.61027 | -72.34714 | 2631 ft | 78 kts | 43° |
| 2026-04-27 21:40 | 42.61302 | -72.34124 | 2850 ft | 74 kts | 72° |
| 2026-04-27 21:40 | 42.61320 | -72.33420 | 3018 ft | 78 kts | 105° |
| 2026-04-27 21:41 | 42.60958 | -72.32869 | 3201 ft | 82 kts | 143° |
| 2026-04-27 21:41 | 42.60453 | -72.32503 | 3384 ft | 83 kts | 145° |
| 2026-04-27 21:41 | 42.59939 | -72.32139 | 3537 ft | 86 kts | 144° |
| 2026-04-27 21:41 | 42.59381 | -72.31688 | 3566 ft | 100 kts | 143° |
| 2026-04-27 21:42 | 42.58766 | -72.31177 | 3590 ft | 107 kts | 144° |
| 2026-04-27 21:42 | 42.58111 | -72.30643 | 3599 ft | 111 kts | 145° |
| 2026-04-27 21:42 | 42.57437 | -72.30113 | 3592 ft | 114 kts | 145° |
| 2026-04-27 21:42 | 42.56768 | -72.29518 | 3591 ft | 114 kts | 140° |
| 2026-04-27 21:43 | 42.56134 | -72.28886 | 3591 ft | 114 kts | 139° |
| 2026-04-27 21:43 | 42.55502 | -72.28238 | 3592 ft | 114 kts | 138° |